createdAt,value
2017-01-27T16:10:33.775Z,0.86
2017-01-27T16:11:43.329Z,0.88
2017-01-27T16:12:53.823Z,0.94
2017-01-27T16:14:04.846Z,0.92
2017-01-27T16:15:15.498Z,0.93
2017-01-27T16:16:24.966Z,0.86
2017-01-27T16:17:35.301Z,0.88
2017-01-27T16:18:45.659Z,0.84
2017-01-27T16:19:54.621Z,0.81
2017-01-27T16:21:03.797Z,0.78
2017-01-27T16:22:13.250Z,0.81
2017-01-27T16:23:22.598Z,0.78
2017-01-27T16:24:31.613Z,0.75
2017-01-27T16:25:40.533Z,0.81
2017-01-27T16:26:50.164Z,0.79
2017-01-27T16:27:59.092Z,0.64
2017-01-27T16:29:09.390Z,0.6
2017-01-27T16:30:18.287Z,0.58
2017-01-27T16:31:28.035Z,0.61
2017-01-27T16:32:37.166Z,0.56
2017-01-27T16:33:46.113Z,0.61
2017-01-27T16:34:57.191Z,0.56
2017-01-27T16:36:06.508Z,0.57
2017-01-27T16:37:15.429Z,0.58
2017-01-27T16:38:24.620Z,0.54
2017-01-27T16:39:33.965Z,0.5
2017-01-27T16:40:43.346Z,0.48
2017-01-27T16:41:52.297Z,0.46
2017-01-27T16:43:03.032Z,0.43
2017-01-27T16:44:12.638Z,0.39
2017-01-27T16:45:22.924Z,0.38
2017-01-27T16:46:33.371Z,0.42
2017-01-27T16:47:42.686Z,0.4
2017-01-27T16:48:53.764Z,0.38
2017-01-27T16:50:04.346Z,0.3
2017-01-27T16:51:14.643Z,0.24
2017-01-27T16:52:23.956Z,0.17
2017-01-27T16:53:33.268Z,0.25
2017-01-27T16:54:43.587Z,0.2
2017-01-27T16:55:54.187Z,0.31
2017-01-27T16:57:04.532Z,0.21
2017-01-27T16:58:13.475Z,0.12
2017-01-27T16:59:23.011Z,0.08
2017-01-27T17:00:32.367Z,0.17
2017-01-27T17:01:44.365Z,0.06
2017-01-27T17:02:55.101Z,0.08
2017-01-27T17:04:04.040Z,0.16
2017-01-27T17:05:16.543Z,0.12
2017-01-27T17:06:25.456Z,0.16
2017-01-27T17:07:35.126Z,0.17
2017-01-27T17:08:44.091Z,0.16
2017-01-27T17:09:53.017Z,0.16
2017-01-27T17:11:03.340Z,0.22
2017-01-27T17:12:13.139Z,0.27
2017-01-27T17:13:22.340Z,0.2
2017-01-27T17:14:31.292Z,0.08
2017-01-27T17:15:40.374Z,0.14
2017-01-27T17:16:52.594Z,0.14
2017-01-27T17:18:03.887Z,-0.01
2017-01-27T17:19:14.748Z,0.06
2017-01-27T17:20:25.818Z,-0.01
2017-01-27T17:21:34.842Z,-0.02
2017-01-27T17:22:43.742Z,-0.06
2017-01-27T17:23:54.058Z,0.01
2017-01-27T17:25:04.034Z,-0.09
2017-01-27T17:26:16.174Z,-0.16
2017-01-27T17:27:25.707Z,-0.17
2017-01-27T17:28:34.957Z,-0.09
2017-01-27T17:29:44.737Z,-0.15
2017-01-27T17:30:54.927Z,-0.12
2017-01-27T17:32:05.266Z,-0.12
2017-01-27T17:33:14.211Z,-0.12
2017-01-27T17:34:24.497Z,-0.16
2017-01-27T17:35:33.866Z,-0.12
2017-01-27T17:36:45.720Z,-0.15
2017-01-27T17:37:54.781Z,-0.12
2017-01-27T17:39:08.672Z,-0.17
2017-01-27T17:40:17.724Z,-0.17
2017-01-27T17:41:28.032Z,-0.17
2017-01-27T17:42:40.035Z,-0.15
2017-01-27T17:43:49.166Z,-0.06
2017-01-27T17:44:58.167Z,-0.12
2017-01-27T17:46:08.823Z,-0.1
2017-01-27T17:47:20.577Z,-0.09
2017-01-27T17:48:31.321Z,-0.19
2017-01-27T17:49:41.657Z,-0.12
2017-01-27T17:50:50.664Z,-0.02
2017-01-27T17:52:01.127Z,-0.04
2017-01-27T17:53:11.817Z,0.01
2017-01-27T17:54:22.810Z,-0.04
2017-01-27T17:55:31.850Z,-0.09
2017-01-27T17:56:41.956Z,0.05
2017-01-27T17:57:51.477Z,0.06
2017-01-27T17:59:02.337Z,-0.02
2017-01-27T18:00:11.806Z,0.01
2017-01-27T18:01:21.207Z,0.11
2017-01-27T18:02:31.830Z,0.05
2017-01-27T18:03:41.201Z,0.05
2017-01-27T18:04:51.555Z,0.03
2017-01-27T18:06:01.106Z,-0.04
2017-01-27T18:07:10.056Z,0.03
2017-01-27T18:08:19.024Z,0.05
2017-01-27T18:09:29.288Z,0.03
2017-01-27T18:10:38.209Z,0.02
2017-01-27T18:11:47.418Z,0.01
2017-01-27T18:12:56.444Z,-0.04
2017-01-27T18:14:05.668Z,-0.02
2017-01-27T18:15:14.996Z,-0.07
2017-01-27T18:16:26.778Z,-0.17
2017-01-27T18:17:37.979Z,-0.09
2017-01-27T18:18:46.973Z,-0.16
2017-01-27T18:19:59.589Z,-0.16
2017-01-27T18:21:09.025Z,-0.22
2017-01-27T18:22:21.376Z,-0.3
2017-01-27T18:23:31.710Z,-0.35
2017-01-27T18:24:41.859Z,-0.35
2017-01-27T18:25:52.662Z,-0.45
2017-01-27T18:27:01.652Z,-0.53
2017-01-27T18:28:10.664Z,-0.66
2017-01-27T18:29:19.585Z,-0.66
2017-01-27T18:30:29.939Z,-0.78
2017-01-27T18:31:40.556Z,-0.74
2017-01-27T18:32:50.925Z,-0.74
2017-01-27T18:33:59.873Z,-0.69
2017-01-27T18:35:10.137Z,-0.76
2017-01-27T18:36:19.470Z,-0.73
2017-01-27T18:37:31.398Z,-0.71
2017-01-27T18:38:41.689Z,-0.76
2017-01-27T18:39:51.040Z,-0.69
2017-01-27T18:41:01.428Z,-0.64
2017-01-27T18:42:11.109Z,-0.73
2017-01-27T18:43:22.103Z,-0.69
2017-01-27T18:44:31.479Z,-0.64
2017-01-27T18:45:40.450Z,-0.66
2017-01-27T18:46:49.805Z,-0.64
2017-01-27T18:47:58.742Z,-0.6
2017-01-27T18:49:09.795Z,-0.6
2017-01-27T18:50:19.239Z,-0.67
2017-01-27T18:51:32.354Z,-0.71
2017-01-27T18:52:43.164Z,-0.77
2017-01-27T18:53:56.283Z,-0.77
2017-01-27T18:55:06.949Z,-0.84
2017-01-27T18:56:17.327Z,-0.92
2017-01-27T18:57:27.755Z,-0.91
2017-01-27T18:58:38.483Z,-0.88
2017-01-27T18:59:49.782Z,-0.95
2017-01-27T19:01:01.059Z,-0.95
2017-01-27T19:02:11.733Z,-0.94
2017-01-27T19:03:24.742Z,-0.84
2017-01-27T19:04:36.530Z,-0.89
2017-01-27T19:05:49.038Z,-0.88
2017-01-27T19:06:58.785Z,-0.88
2017-01-27T19:08:08.287Z,-0.85
2017-01-27T19:09:19.012Z,-0.82
2017-01-27T19:10:29.475Z,-0.87
2017-01-27T19:11:40.513Z,-0.92
2017-01-27T19:12:51.823Z,-0.96
2017-01-27T19:14:03.802Z,-0.92
2017-01-27T19:15:14.748Z,-0.91
2017-01-27T19:16:25.612Z,-0.88
2017-01-27T19:17:37.912Z,-0.98
2017-01-27T19:18:50.035Z,-0.94
2017-01-27T19:20:03.320Z,-1.02
2017-01-27T19:21:13.944Z,-0.87
2017-01-27T19:22:26.365Z,-0.98
2017-01-27T19:23:35.624Z,-1
2017-01-27T19:24:46.922Z,-1.05
2017-01-27T19:25:59.525Z,-0.89
2017-01-27T19:27:15.074Z,-0.92
2017-01-27T19:28:29.678Z,-0.81
2017-01-27T19:29:42.467Z,-0.87
2017-01-27T19:30:55.983Z,-0.85
2017-01-27T19:32:12.966Z,-0.77
2017-01-27T19:33:31.971Z,-0.82
2017-01-27T19:34:44.566Z,-0.74
2017-01-27T19:35:55.457Z,-0.76
2017-01-27T19:37:07.307Z,-0.69
2017-01-27T19:38:22.228Z,-0.69
2017-01-27T19:39:35.084Z,-0.7
2017-01-27T19:40:52.017Z,-0.71
2017-01-27T19:42:08.352Z,-0.71
2017-01-27T19:43:19.885Z,-0.82
2017-01-27T19:44:33.452Z,-0.85
2017-01-27T19:45:50.124Z,-0.88
2017-01-27T19:47:00.837Z,-0.82
2017-01-27T19:48:12.172Z,-0.89
2017-01-27T19:49:26.013Z,-0.88
2017-01-27T19:50:40.657Z,-0.87
2017-01-27T19:51:53.411Z,-0.88
2017-01-27T19:53:04.612Z,-0.85
2017-01-27T19:54:15.782Z,-0.92
2017-01-27T19:55:25.820Z,-0.77
2017-01-27T19:56:36.349Z,-0.92
2017-01-27T19:57:49.730Z,-0.92
2017-01-27T19:59:01.756Z,-0.89
2017-01-27T20:00:14.214Z,-0.95
2017-01-27T20:01:26.715Z,-0.94
2017-01-27T20:02:41.436Z,-1.07
2017-01-27T20:03:50.667Z,-1.05
2017-01-27T20:05:01.322Z,-1.06
2017-01-27T20:06:11.878Z,-1.09
2017-01-27T20:07:21.449Z,-1.03
2017-01-27T20:08:32.179Z,-1.06
2017-01-27T20:09:41.879Z,-1.06
2017-01-27T20:10:52.562Z,-1.09
2017-01-27T20:12:04.992Z,-1.12
2017-01-27T20:13:14.439Z,-1.05
2017-01-27T20:14:23.643Z,-1.06
2017-01-27T20:15:35.537Z,-1.1
2017-01-27T20:16:46.124Z,-1.02
2017-01-27T20:17:56.803Z,-0.95
2017-01-27T20:19:09.307Z,-0.84
2017-01-27T20:20:19.850Z,-0.91
2017-01-27T20:21:30.472Z,-0.95
2017-01-27T20:22:44.071Z,-0.91
2017-01-27T20:23:53.359Z,-1.07
2017-01-27T20:25:03.648Z,-1.02
2017-01-27T20:26:15.798Z,-0.89
2017-01-27T20:27:28.024Z,-0.96
2017-01-27T20:28:39.749Z,-0.91
2017-01-27T20:29:49.956Z,-0.91
2017-01-27T20:31:04.273Z,-0.96
2017-01-27T20:32:13.586Z,-0.89
2017-01-27T20:33:25.653Z,-0.91
2017-01-27T20:34:38.248Z,-0.92
2017-01-27T20:35:48.699Z,-0.94
2017-01-27T20:36:59.994Z,-1
2017-01-27T20:38:11.705Z,-1.06
2017-01-27T20:39:22.322Z,-1.06
2017-01-27T20:40:31.931Z,-1.12
2017-01-27T20:41:41.819Z,-1.13
2017-01-27T20:42:55.286Z,-1.21
2017-01-27T20:44:05.742Z,-1.21
2017-01-27T20:45:15.150Z,-1.16
2017-01-27T20:46:28.388Z,-1.26
2017-01-27T20:47:40.194Z,-1.39
2017-01-27T20:48:53.503Z,-1.36
2017-01-27T20:50:04.759Z,-1.46
2017-01-27T20:51:15.759Z,-1.62
2017-01-27T20:52:26.942Z,-1.47
2017-01-27T20:53:38.982Z,-1.6
2017-01-27T20:54:50.348Z,-1.57
2017-01-27T20:56:04.236Z,-1.52
2017-01-27T20:57:15.163Z,-1.54
2017-01-27T20:58:25.941Z,-1.62
2017-01-27T20:59:37.016Z,-1.54
2017-01-27T21:00:48.647Z,-1.75
2017-01-27T21:02:01.512Z,-1.72
2017-01-27T21:03:12.313Z,-1.75
2017-01-27T21:04:22.038Z,-1.76
2017-01-27T21:05:33.668Z,-1.72
2017-01-27T21:06:44.536Z,-1.83
2017-01-27T21:07:55.055Z,-1.8
2017-01-27T21:09:04.310Z,-1.88
2017-01-27T21:10:13.923Z,-1.96
2017-01-27T21:11:23.126Z,-1.98
2017-01-27T21:12:36.029Z,-2.03
2017-01-27T21:13:46.047Z,-2.08
2017-01-27T21:14:55.842Z,-2.04
2017-01-27T21:16:08.004Z,-2.01
2017-01-27T21:17:19.256Z,-1.98
2017-01-27T21:18:28.845Z,-1.96
2017-01-27T21:19:38.131Z,-1.92
2017-01-27T21:20:49.423Z,-1.92
2017-01-27T21:21:58.695Z,-1.97
2017-01-27T21:23:10.623Z,-2.03
2017-01-27T21:24:21.466Z,-2.14
2017-01-27T21:25:34.174Z,-2
2017-01-27T21:26:49.485Z,-2
2017-01-27T21:28:06.158Z,-1.9
2017-01-27T21:29:17.297Z,-1.96
2017-01-27T21:30:30.950Z,-1.92
2017-01-27T21:31:44.179Z,-1.96
2017-01-27T21:32:55.688Z,-1.96
2017-01-27T21:34:06.347Z,-1.92
2017-01-27T21:35:17.971Z,-1.83
2017-01-27T21:36:27.804Z,-1.86
2017-01-27T21:37:39.074Z,-1.92
2017-01-27T21:38:51.355Z,-1.88
2017-01-27T21:40:04.916Z,-1.89
2017-01-27T21:41:17.725Z,-1.88
2017-01-27T21:42:30.051Z,-1.9
2017-01-27T21:43:40.716Z,-1.92
2017-01-27T21:44:52.547Z,-1.92
2017-01-27T21:46:04.898Z,-1.89
2017-01-27T21:47:16.149Z,-1.92
2017-01-27T21:48:26.741Z,-1.9
2017-01-27T21:49:36.033Z,-1.96
2017-01-27T21:50:46.160Z,-1.94
2017-01-27T21:51:57.170Z,-1.92
2017-01-27T21:53:09.279Z,-1.94
2017-01-27T21:54:20.032Z,-1.97
2017-01-27T21:55:31.885Z,-1.97
2017-01-27T21:56:41.599Z,-2.1
2017-01-27T21:57:51.250Z,-2.01
2017-01-27T21:59:16.114Z,-2.01
2017-01-27T22:00:34.501Z,-1.96
2017-01-27T22:01:47.043Z,-1.98
2017-01-27T22:02:59.563Z,-1.85
2017-01-27T22:04:13.009Z,-1.97
2017-01-27T22:05:24.068Z,-1.97
2017-01-27T22:06:36.561Z,-1.92
2017-01-27T22:07:50.972Z,-2.08
2017-01-27T22:09:05.192Z,-2.1
2017-01-27T22:10:17.478Z,-2.14
2017-01-27T22:11:36.422Z,-2.26
2017-01-27T22:12:54.012Z,-2.26
2017-01-27T22:14:11.541Z,-2.42
2017-01-27T22:15:33.268Z,-2.34
2017-01-27T22:16:46.914Z,-2.37
2017-01-27T22:18:03.588Z,-2.46
2017-01-27T22:19:26.337Z,-2.43
2017-01-27T22:20:36.740Z,-2.43
2017-01-27T22:21:48.754Z,-2.46
2017-01-27T22:23:00.147Z,-2.54
2017-01-27T22:24:12.162Z,-2.52
2017-01-27T22:25:27.517Z,-2.61
2017-01-27T22:26:40.295Z,-2.54
2017-01-27T22:27:52.708Z,-2.55
2017-01-27T22:29:07.433Z,-2.5
2017-01-27T22:30:20.257Z,-2.6
2017-01-27T22:31:37.969Z,-2.55
2017-01-27T22:32:57.924Z,-2.57
2017-01-27T22:34:14.807Z,-2.62
2017-01-27T22:35:27.683Z,-2.55
2017-01-27T22:36:38.337Z,-2.64
2017-01-27T22:37:50.730Z,-2.7
2017-01-27T22:39:00.805Z,-2.73
2017-01-27T22:40:12.324Z,-2.68
2017-01-27T22:41:23.903Z,-2.61
2017-01-27T22:42:35.535Z,-2.68
2017-01-27T22:43:49.768Z,-2.76
2017-01-27T22:44:59.019Z,-2.81
2017-01-27T22:46:13.343Z,-2.79
2017-01-27T22:47:27.409Z,-2.74
2017-01-27T22:48:40.845Z,-2.79
2017-01-27T22:49:51.720Z,-2.83
2017-01-27T22:51:02.739Z,-2.8
2017-01-27T22:52:15.104Z,-2.89
2017-01-27T22:53:24.949Z,-2.88
2017-01-27T22:54:35.966Z,-2.81
2017-01-27T22:55:47.363Z,-2.88
2017-01-27T22:56:59.422Z,-2.86
2017-01-27T22:58:09.889Z,-2.89
2017-01-27T22:59:20.716Z,-2.94
2017-01-27T23:00:32.718Z,-2.84
2017-01-27T23:01:46.835Z,-2.89
2017-01-27T23:02:58.567Z,-2.94
2017-01-27T23:04:09.348Z,-2.97
2017-01-27T23:05:23.528Z,-2.89
2017-01-27T23:06:34.924Z,-2.86
2017-01-27T23:07:47.708Z,-2.98
2017-01-27T23:09:01.289Z,-2.89
2017-01-27T23:10:13.186Z,-2.91
2017-01-27T23:11:23.174Z,-2.83
2017-01-27T23:12:38.301Z,-2.76
2017-01-27T23:13:53.604Z,-2.8
2017-01-27T23:15:04.929Z,-2.8
2017-01-27T23:16:16.318Z,-2.8
2017-01-27T23:17:27.644Z,-2.79
2017-01-27T23:18:39.013Z,-2.8
2017-01-27T23:19:49.700Z,-2.8
2017-01-27T23:20:59.205Z,-2.71
2017-01-27T23:22:10.335Z,-2.68
2017-01-27T23:23:21.231Z,-2.76
2017-01-27T23:24:31.727Z,-2.64
2017-01-27T23:25:42.293Z,-2.68
2017-01-27T23:26:53.162Z,-2.7
2017-01-27T23:28:02.633Z,-2.76
2017-01-27T23:29:12.114Z,-2.74
2017-01-27T23:30:21.205Z,-2.77
2017-01-27T23:31:30.322Z,-2.81
2017-01-27T23:32:40.770Z,-2.84
2017-01-27T23:33:51.508Z,-2.91
2017-01-27T23:35:00.693Z,-2.91
2017-01-27T23:36:11.176Z,-2.83
2017-01-27T23:37:22.075Z,-2.88
2017-01-27T23:38:33.009Z,-2.86
2017-01-27T23:39:43.229Z,-2.81
2017-01-27T23:40:54.116Z,-2.77
2017-01-27T23:42:03.235Z,-2.77
2017-01-27T23:43:12.344Z,-2.8
2017-01-27T23:44:22.242Z,-2.83
2017-01-27T23:45:31.652Z,-2.94
2017-01-27T23:46:40.812Z,-2.92
2017-01-27T23:47:49.998Z,-2.91
2017-01-27T23:48:59.520Z,-2.97
2017-01-27T23:50:11.403Z,-2.89
2017-01-27T23:51:20.773Z,-2.97
2017-01-27T23:52:31.268Z,-2.89
2017-01-27T23:53:42.517Z,-2.81
2017-01-27T23:54:52.052Z,-2.84
2017-01-27T23:56:01.581Z,-2.91
2017-01-27T23:57:12.327Z,-2.99
2017-01-27T23:58:24.288Z,-3.02
2017-01-27T23:59:33.432Z,-2.97
